createdAt,value
2017-07-03T00:02:22.701Z,6.85
2017-07-03T00:04:50.198Z,8.15
2017-07-03T00:07:18.400Z,6.55
2017-07-03T00:09:45.842Z,9.30
2017-07-03T00:12:13.314Z,6.85
2017-07-03T00:14:40.792Z,8.37
2017-07-03T00:17:08.243Z,5.40
2017-07-03T00:19:35.722Z,9.50
2017-07-03T00:22:03.196Z,9.15
2017-07-03T00:24:30.634Z,6.60
2017-07-03T00:26:58.155Z,7.03
2017-07-03T00:29:25.590Z,7.62
2017-07-03T00:31:53.049Z,8.45
2017-07-03T00:34:21.254Z,8.05
2017-07-03T00:36:48.739Z,9.27
2017-07-03T00:39:16.287Z,8.98
2017-07-03T00:41:43.757Z,6.65
2017-07-03T00:44:11.214Z,7.75
2017-07-03T00:46:38.703Z,8.15
2017-07-03T00:49:06.270Z,6.68
2017-07-03T00:51:33.783Z,9.17
2017-07-03T00:54:01.434Z,11.02
2017-07-03T00:56:28.867Z,9.27
2017-07-03T00:58:56.369Z,6.37
2017-07-03T01:01:23.815Z,6.72
2017-07-03T01:03:51.280Z,9.82
2017-07-03T01:06:18.851Z,9.77
2017-07-03T01:08:46.270Z,9.23
2017-07-03T01:11:13.743Z,11.82
2017-07-03T01:13:41.293Z,8.40
2017-07-03T01:16:08.771Z,7.93
2017-07-03T01:18:36.211Z,6.43
2017-07-03T01:21:03.655Z,12.07
2017-07-03T01:23:31.097Z,10.15
2017-07-03T01:25:58.542Z,11.65
2017-07-03T01:28:26.068Z,11.50
2017-07-03T01:30:54.330Z,8.97
2017-07-03T01:33:21.885Z,9.90
2017-07-03T01:35:49.359Z,7.82
2017-07-03T01:38:17.594Z,9.65
2017-07-03T01:40:45.060Z,7.35
2017-07-03T01:43:12.492Z,10.20
2017-07-03T01:45:39.962Z,12.10
2017-07-03T01:48:07.415Z,9.75
2017-07-03T01:50:34.907Z,10.83
2017-07-03T01:53:02.432Z,9.48
2017-07-03T01:55:29.866Z,8.35
2017-07-03T01:57:57.315Z,8.57
2017-07-03T02:00:24.811Z,12.27
2017-07-03T02:02:52.267Z,6.45
2017-07-03T02:05:19.708Z,8.57
2017-07-03T02:07:47.175Z,10.00
2017-07-03T02:10:14.660Z,9.05
2017-07-03T02:12:42.222Z,10.80
2017-07-03T02:15:09.658Z,7.62
2017-07-03T02:17:37.094Z,8.93
2017-07-03T02:20:04.534Z,9.52
2017-07-03T02:22:32.042Z,10.50
2017-07-03T02:24:59.524Z,12.40
2017-07-03T02:27:27.714Z,9.20
2017-07-03T02:29:55.237Z,12.15
2017-07-03T02:32:23.487Z,10.07
2017-07-03T02:34:51.043Z,8.65
2017-07-03T02:37:18.480Z,11.87
2017-07-03T02:39:45.973Z,11.90
2017-07-03T02:42:13.513Z,7.72
2017-07-03T02:44:40.959Z,8.10
2017-07-03T02:47:08.414Z,11.27
2017-07-03T02:49:35.895Z,7.73
2017-07-03T02:52:03.347Z,9.75
2017-07-03T02:54:30.786Z,13.15
2017-07-03T02:56:58.221Z,9.45
2017-07-03T02:59:25.712Z,9.07
2017-07-03T03:01:53.187Z,9.97
2017-07-03T03:04:20.716Z,7.70
2017-07-03T03:06:48.193Z,8.32
2017-07-03T03:09:15.832Z,8.85
2017-07-03T03:11:43.293Z,7.30
2017-07-03T03:14:10.733Z,10.10
2017-07-03T03:16:38.286Z,8.30
2017-07-03T03:19:05.721Z,10.83
2017-07-03T03:21:33.241Z,10.40
2017-07-03T03:24:00.663Z,8.40
2017-07-03T03:26:28.099Z,9.05
2017-07-03T03:28:55.578Z,9.60
2017-07-03T03:31:23.046Z,9.17
2017-07-03T03:33:50.478Z,10.20
2017-07-03T03:36:17.913Z,8.55
2017-07-03T03:38:45.353Z,9.13
2017-07-03T03:41:13.552Z,6.30
2017-07-03T03:43:41.038Z,5.85
2017-07-03T03:46:08.515Z,9.05
2017-07-03T03:48:36.074Z,5.57
2017-07-03T03:51:03.511Z,8.50
2017-07-03T03:53:30.939Z,8.60
2017-07-03T03:55:58.438Z,6.32
2017-07-03T03:58:25.876Z,9.48
2017-07-03T04:00:53.403Z,9.02
2017-07-03T04:03:20.842Z,10.05
2017-07-03T04:05:48.291Z,6.43
2017-07-03T04:08:16.519Z,9.77
2017-07-03T04:10:43.974Z,6.57
2017-07-03T04:13:11.468Z,10.93
2017-07-03T04:15:38.910Z,8.52
2017-07-03T04:18:06.466Z,7.45
2017-07-03T04:20:34.002Z,9.07
2017-07-03T04:23:01.458Z,9.23
2017-07-03T04:25:28.916Z,7.93
2017-07-03T04:27:56.383Z,8.18
2017-07-03T04:30:23.819Z,6.63
2017-07-03T04:32:51.303Z,8.30
2017-07-03T04:35:18.880Z,6.68
2017-07-03T04:37:47.092Z,6.90
2017-07-03T04:40:14.585Z,9.50
2017-07-03T04:42:42.014Z,8.25
2017-07-03T04:45:09.631Z,8.50
2017-07-03T04:47:37.069Z,8.65
2017-07-03T04:50:04.618Z,3.70
2017-07-03T04:52:32.181Z,8.32
2017-07-03T04:54:59.606Z,8.63
2017-07-03T04:57:27.091Z,8.10
2017-07-03T04:59:54.522Z,8.55
2017-07-03T05:02:22.038Z,10.55
2017-07-03T05:04:50.264Z,6.32
2017-07-03T05:07:17.754Z,7.82
2017-07-03T05:09:45.286Z,8.50
2017-07-03T05:12:12.831Z,6.68
2017-07-03T05:14:40.291Z,5.15
2017-07-03T05:17:07.753Z,6.10
2017-07-03T05:19:35.312Z,5.72
2017-07-03T05:22:02.762Z,6.70
2017-07-03T05:24:30.258Z,6.45
2017-07-03T05:26:57.908Z,9.15
2017-07-03T05:29:25.358Z,7.75
2017-07-03T05:31:52.832Z,8.85
2017-07-03T05:34:20.427Z,8.18
2017-07-03T05:36:47.952Z,6.30
2017-07-03T05:39:15.430Z,8.35
2017-07-03T05:41:42.886Z,7.12
2017-07-03T05:44:16.010Z,8.50
2017-07-03T05:46:44.247Z,7.35
2017-07-03T05:49:11.702Z,6.35
2017-07-03T05:51:39.167Z,9.10
2017-07-03T05:54:06.645Z,7.32
2017-07-03T05:56:34.191Z,7.87
2017-07-03T05:59:01.615Z,6.57
2017-07-03T06:01:29.064Z,7.18
2017-07-03T06:03:56.508Z,6.28
2017-07-03T06:06:24.014Z,7.85
2017-07-03T06:08:51.471Z,6.30
2017-07-03T06:11:18.943Z,7.57
2017-07-03T06:13:47.210Z,4.35
2017-07-03T06:16:14.775Z,8.30
2017-07-03T06:18:42.346Z,5.50
2017-07-03T06:21:09.914Z,5.60
2017-07-03T06:23:38.163Z,5.30
2017-07-03T06:26:05.703Z,5.40
2017-07-03T06:28:33.152Z,7.18
2017-07-03T06:31:00.626Z,5.95
2017-07-03T06:33:28.098Z,6.47
2017-07-03T06:35:55.636Z,5.80
2017-07-03T06:38:23.088Z,8.80
2017-07-03T06:40:50.578Z,8.07
2017-07-03T06:43:19.523Z,3.87
2017-07-03T06:45:47.263Z,4.43
2017-07-03T06:48:14.883Z,6.53
2017-07-03T06:50:43.138Z,4.55
2017-07-03T06:53:10.634Z,7.40
2017-07-03T06:55:38.110Z,6.30
2017-07-03T06:58:05.557Z,5.60
2017-07-03T07:00:32.995Z,5.22
2017-07-03T07:03:00.550Z,7.10
2017-07-03T07:05:28.759Z,5.62
2017-07-03T07:07:56.247Z,7.78
2017-07-03T07:10:23.698Z,6.57
2017-07-03T07:12:51.156Z,4.75
2017-07-03T07:15:18.643Z,4.78
2017-07-03T07:17:46.172Z,3.78
2017-07-03T07:20:13.653Z,5.20
2017-07-03T07:22:41.099Z,4.65
2017-07-03T07:25:08.547Z,5.57
2017-07-03T07:27:35.999Z,5.00
2017-07-03T07:30:03.840Z,4.70
2017-07-03T07:32:31.299Z,3.08
2017-07-03T07:34:58.783Z,6.18
2017-07-03T07:37:26.211Z,4.33
2017-07-03T07:39:53.683Z,5.85
2017-07-03T07:42:21.209Z,4.78
2017-07-03T07:44:48.751Z,5.07
2017-07-03T07:47:16.190Z,3.03
2017-07-03T07:49:44.443Z,6.70
2017-07-03T07:52:11.887Z,3.03
2017-07-03T07:54:39.339Z,3.03
2017-07-03T07:57:06.817Z,4.40
2017-07-03T07:59:34.438Z,3.70
2017-07-03T08:02:01.863Z,2.60
2017-07-03T08:04:30.106Z,3.83
2017-07-03T08:06:57.627Z,3.42
2017-07-03T08:09:25.061Z,6.80
2017-07-03T08:11:52.539Z,5.25
2017-07-03T08:14:19.967Z,3.60
2017-07-03T08:16:47.492Z,3.70
2017-07-03T08:19:14.985Z,2.72
2017-07-03T08:21:42.531Z,3.78
2017-07-03T08:24:10.792Z,4.57
2017-07-03T08:26:38.995Z,4.30
2017-07-03T08:29:06.455Z,4.10
2017-07-03T08:31:33.924Z,5.75
2017-07-03T08:34:01.388Z,6.13
2017-07-03T08:36:28.946Z,4.47
2017-07-03T08:38:56.400Z,4.72
2017-07-03T08:41:23.871Z,2.72
2017-07-03T08:43:51.289Z,3.42
2017-07-03T08:46:18.730Z,2.45
2017-07-03T08:48:46.959Z,3.70
2017-07-03T08:51:14.414Z,4.80
2017-07-03T08:53:41.851Z,4.57
2017-07-03T08:56:09.335Z,4.62
2017-07-03T08:58:36.764Z,6.40
2017-07-03T09:01:04.306Z,2.55
2017-07-03T09:03:31.831Z,3.83
2017-07-03T09:06:00.165Z,4.22
2017-07-03T09:08:27.642Z,4.95
2017-07-03T09:10:55.216Z,3.20
2017-07-03T09:13:22.709Z,4.30
2017-07-03T09:15:50.135Z,4.10
2017-07-03T09:18:18.363Z,4.47
2017-07-03T09:20:45.803Z,3.30
2017-07-03T09:23:13.289Z,2.75
2017-07-03T09:25:40.758Z,3.65
2017-07-03T09:28:08.270Z,4.17
2017-07-03T09:30:35.738Z,3.50
2017-07-03T09:33:03.227Z,3.10
2017-07-03T09:35:30.696Z,5.20
2017-07-03T09:37:58.146Z,4.20
2017-07-03T09:40:25.604Z,6.13
2017-07-03T09:42:53.123Z,4.25
2017-07-03T09:45:20.622Z,3.87
2017-07-03T09:47:48.070Z,3.50
2017-07-03T09:50:15.543Z,3.47
2017-07-03T09:52:42.963Z,3.97
2017-07-03T09:55:10.447Z,3.55
2017-07-03T09:57:37.894Z,6.00
2017-07-03T10:00:05.388Z,5.40
2017-07-03T10:02:32.846Z,3.10
2017-07-03T10:05:00.395Z,3.10
2017-07-03T10:07:28.744Z,3.58
2017-07-03T10:09:56.175Z,4.37
2017-07-03T10:12:23.783Z,3.47
2017-07-03T10:14:52.022Z,2.65
2017-07-03T10:17:19.485Z,2.97
2017-07-03T10:19:46.947Z,2.78
2017-07-03T10:22:14.522Z,3.53
2017-07-03T10:24:41.989Z,2.40
2017-07-03T10:27:10.204Z,4.00
2017-07-03T10:29:37.654Z,2.72
2017-07-03T10:32:05.112Z,2.72
2017-07-03T10:34:32.598Z,4.72
2017-07-03T10:37:00.027Z,3.70
2017-07-03T10:39:27.565Z,3.97
2017-07-03T10:41:55.082Z,3.30
2017-07-03T10:44:22.629Z,5.87
2017-07-03T10:46:50.074Z,3.20
2017-07-03T10:49:17.640Z,4.22
2017-07-03T10:51:45.115Z,4.22
2017-07-03T10:54:12.663Z,3.47
2017-07-03T10:56:40.120Z,4.00
2017-07-03T10:59:07.594Z,4.57
2017-07-03T11:01:35.118Z,2.53
2017-07-03T11:04:02.603Z,3.42
2017-07-03T11:06:30.054Z,4.50
2017-07-03T11:08:57.517Z,3.58
2017-07-03T11:11:25.143Z,4.83
2017-07-03T11:13:52.576Z,4.32
2017-07-03T11:16:20.095Z,4.35
2017-07-03T11:18:47.730Z,3.85
2017-07-03T11:21:15.249Z,4.22
2017-07-03T11:23:42.738Z,4.13
2017-07-03T11:26:10.196Z,4.60
2017-07-03T11:28:37.667Z,3.70
2017-07-03T11:31:05.159Z,2.97
2017-07-03T11:33:33.428Z,4.90
2017-07-03T11:36:02.574Z,4.12
2017-07-03T11:38:30.052Z,3.72
2017-07-03T11:40:57.535Z,3.65
2017-07-03T11:43:25.766Z,3.95
2017-07-03T11:45:53.234Z,2.50
2017-07-03T11:48:20.675Z,2.62
2017-07-03T11:50:48.129Z,4.70
2017-07-03T11:53:15.673Z,3.67
2017-07-03T11:55:43.131Z,3.65
2017-07-03T11:58:10.582Z,3.87
2017-07-03T12:00:38.058Z,3.50
2017-07-03T12:03:05.497Z,2.90
2017-07-03T12:05:32.942Z,3.60
2017-07-03T12:08:00.456Z,4.80
2017-07-03T12:10:27.927Z,3.37
2017-07-03T12:12:55.455Z,4.80
2017-07-03T12:15:22.985Z,4.43
2017-07-03T12:17:50.486Z,4.00
2017-07-03T12:20:17.943Z,3.58
2017-07-03T12:22:45.376Z,3.67
2017-07-03T12:25:12.863Z,3.75
2017-07-03T12:27:40.293Z,3.40
2017-07-03T12:30:07.740Z,4.62
2017-07-03T12:32:35.194Z,2.93
2017-07-03T12:35:02.633Z,4.20
2017-07-03T12:37:30.083Z,4.53
2017-07-03T12:39:57.545Z,3.62
2017-07-03T12:42:24.990Z,4.60
2017-07-03T12:44:52.448Z,6.30
2017-07-03T12:47:20.061Z,3.65
2017-07-03T12:49:47.485Z,2.85
2017-07-03T12:52:14.955Z,5.30
2017-07-03T12:54:42.390Z,4.43
2017-07-03T12:57:09.842Z,4.60
2017-07-03T12:59:37.310Z,2.53
2017-07-03T13:02:04.763Z,3.67
2017-07-03T13:04:32.227Z,5.22
2017-07-03T13:06:59.663Z,2.97
2017-07-03T13:09:27.158Z,6.57
2017-07-03T13:11:54.578Z,4.80
2017-07-03T13:14:22.063Z,5.03
2017-07-03T13:16:49.499Z,3.08
2017-07-03T13:19:17.043Z,3.78
2017-07-03T13:21:44.546Z,5.47
2017-07-03T13:24:12.090Z,4.18
2017-07-03T13:26:39.626Z,2.53
2017-07-03T13:29:07.171Z,4.45
2017-07-03T13:31:34.667Z,4.37
2017-07-03T13:34:02.119Z,3.80
2017-07-03T13:36:29.587Z,2.83
2017-07-03T13:38:57.047Z,4.15
2017-07-03T13:41:24.595Z,3.97
2017-07-03T13:43:52.059Z,4.07
2017-07-03T13:46:19.503Z,3.47
2017-07-03T13:48:46.961Z,3.30
2017-07-03T13:51:14.448Z,4.90
2017-07-03T13:53:41.902Z,4.22
2017-07-03T13:56:10.123Z,3.70
2017-07-03T13:58:37.680Z,5.03
2017-07-03T14:01:05.153Z,6.00
2017-07-03T14:03:32.831Z,4.03
2017-07-03T14:06:00.420Z,3.45
2017-07-03T14:08:27.872Z,3.12
2017-07-03T14:10:55.400Z,3.60
2017-07-03T14:13:22.831Z,3.20
2017-07-03T14:15:50.319Z,2.95
2017-07-03T14:18:17.793Z,4.00
2017-07-03T14:20:45.335Z,3.80
2017-07-03T14:23:12.958Z,5.20
2017-07-03T14:25:40.644Z,3.50
2017-07-03T14:28:08.098Z,4.50
2017-07-03T14:30:35.527Z,3.10
2017-07-03T14:33:02.991Z,5.80
2017-07-03T14:35:30.425Z,5.50
2017-07-03T14:37:57.894Z,4.32
2017-07-03T14:40:25.442Z,3.37
2017-07-03T14:42:52.906Z,3.50
2017-07-03T14:45:20.455Z,3.85
2017-07-03T14:47:47.942Z,3.93
2017-07-03T14:50:16.164Z,4.53
2017-07-03T14:52:43.607Z,3.30
2017-07-03T14:55:11.083Z,3.90
2017-07-03T14:57:38.568Z,2.90
2017-07-03T15:00:06.835Z,5.70
2017-07-03T15:02:34.410Z,3.30
2017-07-03T15:05:01.891Z,3.30
2017-07-03T15:09:56.331Z,4.15
2017-07-03T15:12:23.902Z,6.25
2017-07-03T15:14:51.464Z,4.03
2017-07-03T15:17:18.925Z,4.95
2017-07-03T15:19:46.373Z,3.55
2017-07-03T15:22:13.802Z,4.85
2017-07-03T15:24:41.343Z,3.78
2017-07-03T15:27:08.856Z,3.92
2017-07-03T15:29:36.311Z,3.97
2017-07-03T15:32:04.544Z,4.90
2017-07-03T15:34:31.982Z,4.60
2017-07-03T15:36:59.419Z,4.10
2017-07-03T15:39:26.928Z,4.70
2017-07-03T15:41:54.419Z,6.60
2017-07-03T15:44:22.628Z,5.03
2017-07-03T15:46:50.085Z,4.55
2017-07-03T15:49:17.516Z,4.57
2017-07-03T15:51:45.076Z,4.80
2017-07-03T15:54:13.403Z,5.50
2017-07-03T15:56:40.864Z,4.93
2017-07-03T15:59:08.411Z,5.23
2017-07-03T16:01:35.971Z,4.53
2017-07-03T16:04:03.462Z,5.10
2017-07-03T16:06:30.895Z,5.03
2017-07-03T16:08:58.628Z,3.80
2017-07-03T16:11:26.071Z,4.10
2017-07-03T16:13:53.637Z,5.10
2017-07-03T16:16:21.232Z,3.90
2017-07-03T16:18:48.693Z,5.57
2017-07-03T16:21:16.154Z,5.47
2017-07-03T16:23:43.654Z,5.65
2017-07-03T16:26:11.133Z,4.53
2017-07-03T16:28:38.747Z,5.20
2017-07-03T16:31:06.993Z,6.47
2017-07-03T16:33:34.422Z,4.20
2017-07-03T16:36:01.910Z,4.70
2017-07-03T16:38:29.356Z,4.30
2017-07-03T16:40:56.820Z,4.00
2017-07-03T16:43:24.267Z,4.85
2017-07-03T16:45:51.726Z,4.13
2017-07-03T16:48:19.208Z,6.57
2017-07-03T16:50:46.715Z,4.80
2017-07-03T16:53:14.159Z,4.45
2017-07-03T16:55:41.655Z,4.93
2017-07-03T16:58:09.135Z,4.50
2017-07-03T17:00:36.715Z,7.53
2017-07-03T17:03:04.174Z,6.03
2017-07-03T17:05:31.635Z,6.82
2017-07-03T17:07:59.094Z,4.78
2017-07-03T17:10:26.556Z,7.93
2017-07-03T17:12:53.999Z,5.07
2017-07-03T17:15:21.461Z,5.05
2017-07-03T17:17:48.911Z,6.10
2017-07-03T17:20:16.366Z,8.40
2017-07-03T17:22:44.608Z,8.60
2017-07-03T17:25:12.073Z,8.90
2017-07-03T17:27:39.559Z,10.02
2017-07-03T17:30:06.990Z,10.40
2017-07-03T17:32:35.262Z,11.20
2017-07-03T17:35:03.479Z,11.30
2017-07-03T17:37:30.997Z,11.68
2017-07-03T17:39:59.204Z,11.20
2017-07-03T17:42:27.185Z,10.90
2017-07-03T17:44:55.472Z,10.90
2017-07-03T17:47:22.954Z,11.10
2017-07-03T17:49:50.427Z,11.30
2017-07-03T17:52:18.784Z,10.13
2017-07-03T17:54:46.265Z,9.43
2017-07-03T17:57:13.707Z,9.75
2017-07-03T17:59:41.311Z,9.85
2017-07-03T18:02:08.812Z,7.85
2017-07-03T18:04:36.244Z,8.13
2017-07-03T18:07:03.799Z,8.60
2017-07-03T18:09:31.287Z,11.73
2017-07-03T18:11:58.710Z,9.95
2017-07-03T18:14:26.153Z,9.30
2017-07-03T18:16:53.679Z,12.95
2017-07-03T18:19:21.924Z,8.60
2017-07-03T18:21:49.406Z,9.95
2017-07-03T18:24:16.873Z,7.27
2017-07-03T18:26:45.115Z,7.72
2017-07-03T18:29:12.590Z,7.47
2017-07-03T18:31:40.100Z,9.45
2017-07-03T18:34:07.544Z,7.20
2017-07-03T18:36:35.163Z,8.20
2017-07-03T18:39:02.815Z,7.40
2017-07-03T18:41:30.377Z,8.38
2017-07-03T18:43:57.836Z,9.30
2017-07-03T18:46:25.266Z,7.53
2017-07-03T18:48:52.738Z,8.87
2017-07-03T18:51:20.283Z,8.10
2017-07-03T18:53:47.732Z,8.68
2017-07-03T18:56:15.194Z,9.00
2017-07-03T18:58:42.683Z,10.55
2017-07-03T19:01:10.182Z,7.28
2017-07-03T19:03:37.652Z,8.13
2017-07-03T19:06:05.109Z,9.00
2017-07-03T19:08:32.573Z,10.32
2017-07-03T19:11:00.079Z,12.70
2017-07-03T19:13:27.530Z,9.10
2017-07-03T19:15:54.954Z,9.95
2017-07-03T19:18:22.543Z,12.77
2017-07-03T19:20:50.092Z,10.65
2017-07-03T19:23:18.379Z,10.30
2017-07-03T19:25:45.815Z,9.48
2017-07-03T19:28:14.065Z,10.77
2017-07-03T19:30:41.531Z,9.82
2017-07-03T19:33:09.065Z,7.77
2017-07-03T19:35:36.556Z,9.98
2017-07-03T19:38:04.000Z,11.25
2017-07-03T19:40:31.440Z,10.00
2017-07-03T19:42:58.968Z,9.63
2017-07-03T19:45:26.448Z,9.77
2017-07-03T19:47:53.937Z,9.48
2017-07-03T19:50:22.135Z,8.82
2017-07-03T19:52:49.652Z,7.72
2017-07-03T19:55:17.193Z,8.47
2017-07-03T19:57:44.651Z,8.02
2017-07-03T20:00:12.092Z,7.15
2017-07-03T20:02:39.625Z,9.38
2017-07-03T20:05:07.131Z,9.02
2017-07-03T20:07:34.681Z,8.38
2017-07-03T20:10:02.140Z,7.57
2017-07-03T20:12:30.803Z,7.93
2017-07-03T20:14:58.727Z,7.53
2017-07-03T20:17:27.457Z,7.95
2017-07-03T20:19:55.424Z,10.10
2017-07-03T20:22:23.396Z,9.40
2017-07-03T20:24:51.256Z,10.75
2017-07-03T20:27:18.767Z,8.23
2017-07-03T20:29:46.211Z,6.80
2017-07-03T20:32:13.778Z,10.87
2017-07-03T20:34:41.242Z,8.68
2017-07-03T20:37:09.502Z,9.65
2017-07-03T20:39:37.080Z,11.10
2017-07-03T20:42:05.259Z,7.28
2017-07-03T20:44:33.513Z,9.52
2017-07-03T20:47:00.942Z,7.25
2017-07-03T20:49:28.386Z,9.02
2017-07-03T20:51:55.863Z,8.57
2017-07-03T20:54:23.423Z,6.32
2017-07-03T20:56:50.883Z,11.20
2017-07-03T20:59:18.390Z,7.43
2017-07-03T21:01:46.607Z,8.43
2017-07-03T21:04:14.067Z,9.15
2017-07-03T21:06:41.507Z,7.30
2017-07-03T21:09:08.940Z,8.30
2017-07-03T21:11:36.419Z,8.23
2017-07-03T21:14:03.908Z,8.68
2017-07-03T21:16:31.449Z,11.23
2017-07-03T21:18:58.926Z,9.27
2017-07-03T21:21:26.480Z,8.55
2017-07-03T21:23:53.915Z,11.77
2017-07-03T21:26:21.380Z,12.20
2017-07-03T21:28:48.857Z,8.02
2017-07-03T21:31:17.121Z,12.52
2017-07-03T21:33:44.581Z,13.27
2017-07-03T21:36:12.802Z,9.45
2017-07-03T21:38:40.297Z,7.70
2017-07-03T21:41:07.763Z,10.00
2017-07-03T21:43:35.335Z,11.50
2017-07-03T21:46:03.606Z,7.97
2017-07-03T21:48:31.159Z,6.60
2017-07-03T21:50:58.599Z,10.75
2017-07-03T21:53:26.039Z,10.68
2017-07-03T21:55:53.498Z,10.98
2017-07-03T21:58:21.018Z,9.43
2017-07-03T22:00:49.273Z,10.52
2017-07-03T22:03:16.812Z,10.90
2017-07-03T22:05:44.371Z,8.90
2017-07-03T22:08:11.966Z,11.15
2017-07-03T22:10:39.441Z,7.72
2017-07-03T22:13:07.653Z,8.32
2017-07-03T22:15:35.162Z,11.75
2017-07-03T22:18:02.690Z,7.85
2017-07-03T22:20:30.163Z,8.60
2017-07-03T22:22:58.435Z,10.98
2017-07-03T22:25:26.667Z,7.00
2017-07-03T22:27:54.175Z,11.12
2017-07-03T22:30:21.693Z,9.38
2017-07-03T22:32:49.142Z,11.55
2017-07-03T22:35:16.618Z,9.68
2017-07-03T22:37:44.891Z,11.40
2017-07-03T22:40:12.443Z,10.75
2017-07-03T22:42:39.899Z,11.52
2017-07-03T22:45:07.369Z,12.27
2017-07-03T22:47:34.804Z,10.55
2017-07-03T22:50:02.249Z,8.57
2017-07-03T22:52:29.799Z,11.93
2017-07-03T22:54:57.284Z,9.43
2017-07-03T22:57:24.851Z,9.80
2017-07-03T22:59:52.302Z,9.55
2017-07-03T23:02:19.758Z,10.85
2017-07-03T23:04:47.301Z,12.23
2017-07-03T23:07:14.731Z,10.57
2017-07-03T23:09:42.231Z,9.27
2017-07-03T23:12:09.809Z,9.52
2017-07-03T23:14:38.038Z,11.23
2017-07-03T23:17:05.513Z,10.15
2017-07-03T23:19:32.969Z,11.93
2017-07-03T23:22:00.399Z,12.55
2017-07-03T23:24:27.887Z,10.38
2017-07-03T23:26:55.368Z,10.77
2017-07-03T23:29:23.572Z,12.68
2017-07-03T23:31:51.069Z,10.35
2017-07-03T23:34:18.531Z,10.40
2017-07-03T23:36:46.004Z,19.42
2017-07-03T23:39:13.424Z,12.02
2017-07-03T23:41:40.890Z,10.82
2017-07-03T23:44:08.336Z,10.53
2017-07-03T23:46:35.807Z,10.10
2017-07-03T23:49:03.242Z,8.93
2017-07-03T23:51:30.711Z,9.88
2017-07-03T23:53:58.185Z,9.80
2017-07-03T23:56:25.744Z,9.52
2017-07-03T23:58:53.360Z,9.38
